Información del aeropuerto VEBD

Información de pista
Pista 18 Longitud 9035 ft Anchura 150 ft
Elevación 0 ft Umbral 0 ft Rumbo 181
Pista 36 Longitud 9035 ft Anchura 150 ft
Elevación 0 ft Umbral 0 ft Rumbo 1
Frecuencias del aeropuerto
Tipo A/G Nombre RDO Frecuencia 293.1 MHZ
Tipo APP Nombre APP Frecuencia 131.2 MHZ
Tipo TWR Nombre TWR Frecuencia 122.3 MHZ
Radioayudas del aeropuerto
Tipo VOR-DME Nombre Bagdogra Frecuencia 116600 KHZ
Tipo NDB Nombre Bagdogra Frecuencia 345 KHZ
Información meteorológica del aeropuerto y NOTAM
ADDS - METARS form results

(0938 UTC 19 April 2021)
Data provider http://aviationweather.gov/metar/data/
 
Forecast for: VEBD (BAGHDOGRA (IN-AF, IN)
Text: TAF VEBD 190200Z 1903/1912 14005KT 5000 HZ FEW020 SCT100
Forecast period: 0300 to 1200 UTC 19 April 2021
Forecast type: FROM: standard forecast or significant change
Winds: from the SE (140 degrees) at 6 MPH (5 knots; 2.6 m/s)
Visibility: 3 miles (5 km)
Ceiling: at least 12,000 feet AGL
Clouds: few clouds at 2000 feet AGL
scattered clouds at 10000 feet AGL
Weather: HZ  (haze)